createdAt,value
2023-05-14T00:00:44.386Z,12.18
2023-05-14T00:01:44.389Z,12.21
2023-05-14T00:02:44.461Z,12.22
2023-05-14T00:03:44.445Z,12.22
2023-05-14T00:04:44.360Z,12.25
2023-05-14T00:05:44.318Z,12.22
2023-05-14T00:06:44.322Z,12.26
2023-05-14T00:07:44.312Z,12.26
2023-05-14T00:08:44.313Z,12.30
2023-05-14T00:09:44.278Z,12.36
2023-05-14T00:10:44.284Z,12.37
2023-05-14T00:11:44.253Z,12.40
2023-05-14T00:12:44.287Z,12.38
2023-05-14T00:13:44.229Z,12.38
2023-05-14T00:14:44.238Z,12.41
2023-05-14T00:15:44.260Z,12.44
2023-05-14T00:16:44.232Z,12.43
2023-05-14T00:17:44.309Z,12.41
2023-05-14T00:18:44.263Z,12.36
2023-05-14T00:19:44.167Z,12.31
2023-05-14T00:20:44.201Z,12.31
2023-05-14T00:21:44.154Z,12.30
2023-05-14T00:22:44.193Z,12.23
2023-05-14T00:23:44.121Z,12.23
2023-05-14T00:24:44.144Z,12.16
2023-05-14T00:25:44.163Z,12.01
2023-05-14T00:26:44.144Z,11.90
2023-05-14T00:27:44.088Z,11.87
2023-05-14T00:28:44.110Z,11.85
2023-05-14T00:29:44.115Z,11.85
2023-05-14T00:30:44.070Z,11.87
2023-05-14T00:31:44.189Z,11.81
2023-05-14T00:32:44.113Z,11.81
2023-05-14T00:33:44.020Z,11.77
2023-05-14T00:34:44.041Z,11.77
2023-05-14T00:35:44.027Z,11.66
2023-05-14T00:36:44.016Z,11.66
2023-05-14T00:37:43.984Z,11.67
2023-05-14T00:38:43.995Z,11.64
2023-05-14T00:39:43.973Z,11.64
2023-05-14T00:40:43.994Z,11.64
2023-05-14T00:41:43.973Z,11.67
2023-05-14T00:42:43.987Z,11.74
2023-05-14T00:43:43.987Z,11.78
2023-05-14T00:44:43.941Z,11.81
2023-05-14T00:45:43.904Z,11.85
2023-05-14T00:46:44.049Z,11.90
2023-05-14T00:47:43.946Z,11.90
2023-05-14T00:48:43.889Z,11.85
2023-05-14T00:49:43.854Z,11.79
2023-05-14T00:50:43.893Z,11.72
2023-05-14T00:51:43.898Z,11.66
2023-05-14T00:52:43.854Z,11.62
2023-05-14T00:53:43.812Z,11.60
2023-05-14T00:54:43.855Z,11.60
2023-05-14T00:55:43.817Z,11.62
2023-05-14T00:56:43.815Z,11.57
2023-05-14T00:57:43.807Z,11.56
2023-05-14T00:58:43.799Z,11.51
2023-05-14T00:59:43.773Z,11.44
2023-05-14T01:00:43.829Z,11.45
2023-05-14T01:01:43.750Z,11.44
2023-05-14T01:02:43.937Z,11.42
2023-05-14T01:03:43.963Z,11.38
2023-05-14T01:04:43.736Z,11.39
2023-05-14T01:05:43.699Z,11.41
2023-05-14T01:06:43.733Z,11.42
2023-05-14T01:07:43.673Z,11.41
2023-05-14T01:08:43.707Z,11.44
2023-05-14T01:09:43.648Z,11.44
2023-05-14T01:10:43.684Z,11.44
2023-05-14T01:11:43.642Z,11.45
2023-05-14T01:12:43.675Z,11.44
2023-05-14T01:13:43.624Z,11.42
2023-05-14T01:14:43.631Z,11.45
2023-05-14T01:15:43.589Z,11.46
2023-05-14T01:16:43.672Z,11.49
2023-05-14T01:17:43.579Z,11.48
2023-05-14T01:18:43.652Z,11.48
2023-05-14T01:19:43.555Z,11.48
2023-05-14T01:20:43.552Z,11.46
2023-05-14T01:21:43.542Z,11.45
2023-05-14T01:22:43.547Z,11.49
2023-05-14T01:23:43.499Z,11.51
2023-05-14T01:24:43.595Z,11.53
2023-05-14T01:25:43.486Z,11.54
2023-05-14T01:26:43.491Z,11.49
2023-05-14T01:27:43.496Z,11.49
2023-05-14T01:28:43.480Z,11.51
2023-05-14T01:29:43.445Z,11.53
2023-05-14T01:30:43.491Z,11.56
2023-05-14T01:31:43.467Z,11.60
2023-05-14T01:32:43.505Z,11.56
2023-05-14T01:33:43.418Z,11.46
2023-05-14T01:34:43.433Z,11.41
2023-05-14T01:35:43.374Z,11.38
2023-05-14T01:36:43.383Z,11.31
2023-05-14T01:37:43.364Z,11.24
2023-05-14T01:38:43.410Z,11.21
2023-05-14T01:39:43.381Z,11.20
2023-05-14T01:40:43.341Z,11.17
2023-05-14T01:41:43.353Z,11.09
2023-05-14T01:42:43.334Z,11.05
2023-05-14T01:43:43.317Z,11.03
2023-05-14T01:44:43.289Z,10.99
2023-05-14T01:45:43.332Z,10.94
2023-05-14T01:46:43.301Z,10.93
2023-05-14T01:47:43.279Z,10.91
2023-05-14T01:48:43.226Z,10.88
2023-05-14T01:49:43.249Z,10.91
2023-05-14T01:50:43.245Z,10.91
2023-05-14T01:51:43.254Z,10.87
2023-05-14T01:52:43.198Z,10.86
2023-05-14T01:53:43.210Z,10.86
2023-05-14T01:54:43.204Z,10.83
2023-05-14T01:55:43.185Z,10.84
2023-05-14T01:56:43.145Z,10.86
2023-05-14T01:57:43.179Z,10.87
2023-05-14T01:58:43.139Z,10.86
2023-05-14T01:59:43.151Z,10.87
2023-05-14T02:00:43.106Z,10.90
2023-05-14T02:01:43.231Z,10.94
2023-05-14T02:02:43.149Z,10.95
2023-05-14T02:03:43.157Z,10.98
2023-05-14T02:04:43.083Z,10.98
2023-05-14T02:05:43.096Z,10.91
2023-05-14T02:06:43.063Z,10.87
2023-05-14T02:07:43.086Z,10.84
2023-05-14T02:08:43.053Z,10.83
2023-05-14T02:09:43.055Z,10.83
2023-05-14T02:10:43.007Z,10.76
2023-05-14T02:11:43.022Z,10.75
2023-05-14T02:12:43.022Z,10.72
2023-05-14T02:13:43.026Z,10.73
2023-05-14T02:14:42.984Z,10.78
2023-05-14T02:15:43.035Z,10.75
2023-05-14T02:16:42.997Z,10.76
2023-05-14T02:17:43.012Z,10.75
2023-05-14T02:18:42.998Z,10.78
2023-05-14T02:19:42.940Z,10.83
2023-05-14T02:20:42.914Z,10.86
2023-05-14T02:21:42.939Z,10.87
2023-05-14T02:22:42.898Z,10.90
2023-05-14T02:23:42.940Z,10.94
2023-05-14T02:24:42.877Z,10.98
2023-05-14T02:25:42.908Z,10.98
2023-05-14T02:26:42.860Z,11.01
2023-05-14T02:27:42.871Z,11.02
2023-05-14T02:28:42.833Z,11.05
2023-05-14T02:29:42.853Z,11.05
2023-05-14T02:30:42.888Z,11.02
2023-05-14T02:31:42.863Z,11.01
2023-05-14T02:32:42.841Z,10.99
2023-05-14T02:33:42.824Z,10.95
2023-05-14T02:34:42.767Z,10.94
2023-05-14T02:35:43.183Z,10.95
2023-05-14T02:36:42.738Z,10.95
2023-05-14T02:37:43.140Z,10.95
2023-05-14T02:38:42.735Z,10.98
2023-05-14T02:39:42.749Z,10.99
2023-05-14T02:40:42.701Z,11.01
2023-05-14T02:41:43.543Z,11.06
2023-05-14T02:42:42.680Z,11.06
2023-05-14T02:43:42.698Z,11.11
2023-05-14T02:44:42.671Z,11.09
2023-05-14T02:45:42.675Z,11.11
2023-05-14T02:46:42.721Z,11.11
2023-05-14T02:47:42.693Z,11.12
2023-05-14T02:48:42.637Z,11.13
2023-05-14T02:49:42.635Z,11.19
2023-05-14T02:50:42.612Z,11.20
2023-05-14T02:51:42.649Z,11.24
2023-05-14T02:52:42.625Z,11.28
2023-05-14T02:53:42.593Z,11.31
2023-05-14T02:54:42.572Z,11.35
2023-05-14T02:55:42.570Z,11.38
2023-05-14T02:56:42.562Z,11.39
2023-05-14T02:57:42.578Z,11.39
2023-05-14T02:58:42.507Z,11.38
2023-05-14T02:59:42.527Z,11.33
2023-05-14T03:00:43.201Z,11.35
2023-05-14T03:01:42.505Z,11.35
2023-05-14T03:02:42.611Z,11.35
2023-05-14T03:03:42.485Z,11.35
2023-05-14T03:04:42.405Z,11.36
2023-05-14T03:05:42.497Z,11.38
2023-05-14T03:06:42.438Z,11.36
2023-05-14T03:07:42.423Z,11.35
2023-05-14T03:08:42.366Z,11.35
2023-05-14T03:09:42.363Z,11.36
2023-05-14T03:10:42.417Z,11.38
2023-05-14T03:11:42.423Z,11.39
2023-05-14T03:12:42.376Z,11.41
2023-05-14T03:13:42.358Z,11.41
2023-05-14T03:14:42.341Z,11.42
2023-05-14T03:15:48.462Z,11.33
2023-05-14T03:16:42.619Z,11.19
2023-05-14T03:17:42.369Z,11.06
2023-05-14T03:18:42.362Z,11.05
2023-05-14T03:19:42.266Z,11.06
2023-05-14T03:20:43.821Z,11.03
2023-05-14T03:21:42.265Z,11.08
2023-05-14T03:22:42.222Z,11.11
2023-05-14T03:23:42.253Z,11.11
2023-05-14T03:24:42.192Z,11.09
2023-05-14T03:25:42.198Z,11.05
2023-05-14T03:26:42.180Z,10.98
2023-05-14T03:27:42.240Z,10.90
2023-05-14T03:28:42.159Z,10.86
2023-05-14T03:29:42.185Z,10.90
2023-05-14T03:30:42.187Z,10.90
2023-05-14T03:31:42.184Z,10.95
2023-05-14T03:32:42.205Z,10.99
2023-05-14T03:33:42.153Z,11.05
2023-05-14T03:34:42.120Z,11.06
2023-05-14T03:35:42.128Z,11.05
2023-05-14T03:36:42.066Z,10.99
2023-05-14T03:37:42.086Z,10.94
2023-05-14T03:38:42.055Z,10.88
2023-05-14T03:39:42.095Z,10.83
2023-05-14T03:40:42.049Z,10.81
2023-05-14T03:41:42.050Z,10.76
2023-05-14T03:42:42.002Z,10.78
2023-05-14T03:43:42.019Z,10.81
2023-05-14T03:44:42.019Z,10.88
2023-05-14T03:45:41.998Z,10.88
2023-05-14T03:46:41.980Z,10.87
2023-05-14T03:47:42.374Z,10.80
2023-05-14T03:48:42.019Z,10.81
2023-05-14T03:49:41.978Z,10.84
2023-05-14T03:50:41.924Z,10.88
2023-05-14T03:51:41.950Z,10.91
2023-05-14T03:52:41.933Z,10.93
2023-05-14T03:53:41.940Z,10.98
2023-05-14T03:54:41.912Z,11.02
2023-05-14T03:55:41.929Z,11.06
2023-05-14T03:56:41.886Z,11.09
2023-05-14T03:57:41.869Z,11.12
2023-05-14T03:58:41.829Z,11.16
2023-05-14T03:59:41.904Z,11.19
2023-05-14T04:00:41.822Z,11.23
2023-05-14T04:01:41.841Z,11.23
2023-05-14T04:02:41.904Z,11.24
2023-05-14T04:03:42.072Z,11.26
2023-05-14T04:04:41.814Z,11.21
2023-05-14T04:05:41.821Z,11.21
2023-05-14T04:06:41.774Z,11.19
2023-05-14T04:07:41.818Z,11.19
2023-05-14T04:08:41.738Z,11.19
2023-05-14T04:09:41.769Z,11.20
2023-05-14T04:10:41.734Z,11.24
2023-05-14T04:11:41.730Z,11.26
2023-05-14T04:12:41.743Z,11.30
2023-05-14T04:13:41.707Z,11.31
2023-05-14T04:14:41.664Z,11.33
2023-05-14T04:15:41.707Z,11.35
2023-05-14T04:16:41.703Z,11.38
2023-05-14T04:17:41.699Z,11.38
2023-05-14T04:18:41.673Z,11.39
2023-05-14T04:19:41.648Z,11.41
2023-05-14T04:20:41.613Z,11.44
2023-05-14T04:21:41.647Z,11.46
2023-05-14T04:22:41.644Z,11.46
2023-05-14T04:23:41.632Z,11.46
2023-05-14T04:24:41.597Z,11.48
2023-05-14T04:25:41.583Z,11.45
2023-05-14T04:26:41.540Z,11.49
2023-05-14T04:27:41.551Z,11.48
2023-05-14T04:28:41.575Z,11.53
2023-05-14T04:29:41.529Z,11.54
2023-05-14T04:30:41.503Z,11.56
2023-05-14T04:31:41.577Z,11.56
2023-05-14T04:32:41.563Z,11.57
2023-05-14T04:33:41.492Z,11.59
2023-05-14T04:34:41.503Z,11.63
2023-05-14T04:35:41.479Z,11.63
2023-05-14T04:36:41.456Z,11.63
2023-05-14T04:37:41.504Z,11.60
2023-05-14T04:38:41.421Z,11.57
2023-05-14T04:39:41.447Z,11.60
2023-05-14T04:40:41.417Z,11.63
2023-05-14T04:41:41.403Z,11.63
2023-05-14T04:42:41.388Z,11.64
2023-05-14T04:43:41.390Z,11.64
2023-05-14T04:44:41.368Z,11.64
2023-05-14T04:45:41.441Z,11.64
2023-05-14T04:46:41.358Z,11.64
2023-05-14T04:47:41.428Z,11.67
2023-05-14T04:48:41.345Z,11.69
2023-05-14T04:49:41.368Z,11.69
2023-05-14T04:50:41.312Z,11.69
2023-05-14T04:51:41.328Z,11.67
2023-05-14T04:52:41.268Z,11.64
2023-05-14T04:53:41.336Z,11.59
2023-05-14T04:54:41.329Z,11.54
2023-05-14T04:55:41.252Z,11.49
2023-05-14T04:56:41.241Z,11.48
2023-05-14T04:57:41.244Z,11.53
2023-05-14T04:58:41.256Z,11.51
2023-05-14T04:59:41.230Z,11.48
2023-05-14T05:00:41.173Z,11.48
2023-05-14T05:01:41.249Z,11.48
2023-05-14T05:02:41.204Z,11.46
2023-05-14T05:03:41.219Z,11.49
2023-05-14T05:04:41.511Z,11.49
2023-05-14T05:05:41.158Z,11.48
2023-05-14T05:06:41.115Z,11.48
2023-05-14T05:07:41.156Z,11.48
2023-05-14T05:08:41.114Z,11.46
2023-05-14T05:09:41.143Z,11.46
2023-05-14T05:10:41.199Z,11.48
2023-05-14T05:11:41.184Z,11.46
2023-05-14T05:12:41.144Z,11.45
2023-05-14T05:13:41.112Z,11.44
2023-05-14T05:14:41.086Z,11.49
2023-05-14T05:15:41.071Z,11.51
2023-05-14T05:16:41.033Z,11.53
2023-05-14T05:17:41.092Z,11.54
2023-05-14T05:18:41.118Z,11.48
2023-05-14T05:19:44.167Z,11.51
2023-05-14T05:20:40.994Z,11.48
2023-05-14T05:21:41.032Z,11.46
2023-05-14T05:22:41.017Z,11.45
2023-05-14T05:23:41.011Z,11.48
2023-05-14T05:24:40.966Z,11.51
2023-05-14T05:25:40.977Z,11.53
2023-05-14T05:26:40.956Z,11.48
2023-05-14T05:27:40.989Z,11.54
2023-05-14T05:28:40.919Z,11.54
2023-05-14T05:29:40.936Z,11.56
2023-05-14T05:30:40.929Z,11.54
2023-05-14T05:31:40.946Z,11.57
2023-05-14T05:32:40.939Z,11.53
2023-05-14T05:33:40.873Z,11.53
2023-05-14T05:34:40.838Z,11.53
2023-05-14T05:35:40.850Z,11.46
2023-05-14T05:36:40.854Z,11.49
2023-05-14T05:37:40.841Z,11.53
2023-05-14T05:38:40.805Z,11.49
2023-05-14T05:39:41.224Z,11.49
2023-05-14T05:40:40.819Z,11.51
2023-05-14T05:41:40.813Z,11.57
2023-05-14T05:42:40.771Z,11.62
2023-05-14T05:43:40.783Z,11.62
2023-05-14T05:44:40.729Z,11.64
2023-05-14T05:45:40.753Z,11.69
2023-05-14T05:46:40.776Z,11.74
2023-05-14T05:47:40.834Z,11.82
2023-05-14T05:48:42.469Z,11.84
2023-05-14T05:49:40.724Z,11.88
2023-05-14T05:50:40.663Z,11.93
2023-05-14T05:51:40.753Z,11.93
2023-05-14T05:52:40.678Z,11.93
2023-05-14T05:53:40.656Z,11.94
2023-05-14T05:54:40.655Z,11.96
2023-05-14T05:55:40.609Z,11.97
2023-05-14T05:56:40.664Z,11.97
2023-05-14T05:57:40.695Z,11.96
2023-05-14T05:58:40.617Z,11.98
2023-05-14T05:59:40.599Z,12.01
2023-05-14T06:00:40.624Z,12.00
2023-05-14T06:01:40.634Z,12.00
2023-05-14T06:02:40.729Z,11.97
2023-05-14T06:03:40.751Z,12.01
2023-05-14T06:04:40.569Z,12.03
2023-05-14T06:05:40.599Z,12.01
2023-05-14T06:06:40.535Z,12.03
2023-05-14T06:07:40.534Z,12.08
2023-05-14T06:08:40.503Z,12.07
2023-05-14T06:09:40.492Z,12.05
2023-05-14T06:10:40.496Z,12.04
2023-05-14T06:11:40.464Z,11.98
2023-05-14T06:12:40.491Z,11.97
2023-05-14T06:13:40.420Z,11.98
2023-05-14T06:14:40.470Z,11.98
2023-05-14T06:15:40.415Z,11.94
2023-05-14T06:16:40.464Z,11.93
2023-05-14T06:17:40.455Z,11.94
2023-05-14T06:18:40.440Z,11.98
2023-05-14T06:19:45.998Z,12.04
2023-05-14T06:20:40.397Z,12.05
2023-05-14T06:21:40.380Z,12.12
2023-05-14T06:22:40.361Z,12.13
2023-05-14T06:23:40.363Z,12.19
2023-05-14T06:24:40.338Z,12.22
2023-05-14T06:25:40.328Z,12.23
2023-05-14T06:26:40.352Z,12.22
2023-05-14T06:27:40.340Z,12.22
2023-05-14T06:28:40.299Z,12.22
2023-05-14T06:29:40.315Z,12.26
2023-05-14T06:30:40.274Z,12.25
2023-05-14T06:31:40.293Z,12.31
2023-05-14T06:32:40.266Z,12.36
2023-05-14T06:33:40.229Z,12.38
2023-05-14T06:34:40.307Z,12.44
2023-05-14T06:35:40.210Z,12.52
2023-05-14T06:36:40.227Z,12.56
2023-05-14T06:37:40.200Z,12.59
2023-05-14T06:38:40.234Z,12.63
2023-05-14T06:39:40.164Z,12.67
2023-05-14T06:40:40.191Z,12.69
2023-05-14T06:41:40.140Z,12.69
2023-05-14T06:42:40.168Z,12.67
2023-05-14T06:43:40.149Z,12.70
2023-05-14T06:44:40.140Z,12.71
2023-05-14T06:45:40.108Z,12.71
2023-05-14T06:46:40.111Z,12.76
2023-05-14T06:47:40.125Z,12.77
2023-05-14T06:48:40.174Z,12.80
2023-05-14T06:49:40.053Z,12.81
2023-05-14T06:50:40.078Z,12.85
2023-05-14T06:51:40.035Z,12.87
2023-05-14T06:52:40.038Z,12.88
2023-05-14T06:53:40.055Z,12.88
2023-05-14T06:54:40.032Z,12.92
2023-05-14T06:55:40.003Z,12.96
2023-05-14T06:56:40.022Z,12.99
2023-05-14T06:57:40.763Z,13.04
2023-05-14T06:58:40.030Z,13.04
2023-05-14T06:59:39.957Z,13.04
2023-05-14T07:00:39.966Z,13.10
2023-05-14T07:01:39.989Z,13.13
2023-05-14T07:02:39.982Z,13.16
2023-05-14T07:03:39.907Z,13.16
2023-05-14T07:04:40.094Z,13.12
2023-05-14T07:05:39.897Z,13.14
2023-05-14T07:06:39.930Z,13.21
2023-05-14T07:07:39.896Z,13.24
2023-05-14T07:08:39.883Z,13.25
2023-05-14T07:09:39.853Z,13.28
2023-05-14T07:10:39.893Z,13.29
2023-05-14T07:11:39.846Z,13.32
2023-05-14T07:12:39.892Z,13.39
2023-05-14T07:13:39.817Z,13.44
2023-05-14T07:14:39.834Z,13.43
2023-05-14T07:15:39.829Z,13.41
2023-05-14T07:16:39.881Z,13.44
2023-05-14T07:17:39.823Z,13.50
2023-05-14T07:18:39.813Z,13.57
2023-05-14T07:19:39.977Z,13.65
2023-05-14T07:20:39.814Z,13.66
2023-05-14T07:21:39.731Z,13.65
2023-05-14T07:22:39.733Z,13.65
2023-05-14T07:23:39.703Z,13.54
2023-05-14T07:24:39.741Z,13.50
2023-05-14T07:25:39.708Z,13.51
2023-05-14T07:26:39.701Z,13.39
2023-05-14T07:27:39.670Z,13.41
2023-05-14T07:28:39.678Z,13.39
2023-05-14T07:29:39.634Z,13.39
2023-05-14T07:30:39.687Z,13.57
2023-05-14T07:31:39.717Z,13.68
2023-05-14T07:32:39.701Z,13.80
2023-05-14T07:33:39.618Z,13.87
2023-05-14T07:34:39.668Z,13.91
2023-05-14T07:35:39.598Z,13.91
2023-05-14T07:36:40.394Z,13.94
2023-05-14T07:37:39.582Z,13.94
2023-05-14T07:38:39.641Z,13.93
2023-05-14T07:39:39.527Z,13.93
2023-05-14T07:40:39.564Z,14.01
2023-05-14T07:41:39.519Z,14.04
2023-05-14T07:42:39.567Z,14.12
2023-05-14T07:43:39.553Z,14.20
2023-05-14T07:44:39.557Z,14.26
2023-05-14T07:45:39.468Z,14.24
2023-05-14T07:46:39.488Z,14.27
2023-05-14T07:47:39.545Z,14.35
2023-05-14T07:48:39.520Z,14.38
2023-05-14T07:49:39.432Z,14.35
2023-05-14T07:50:39.438Z,14.35
2023-05-14T07:51:39.414Z,14.36
2023-05-14T07:52:39.489Z,14.41
2023-05-14T07:53:39.409Z,14.42
2023-05-14T07:54:39.412Z,14.42
2023-05-14T07:55:39.372Z,14.48
2023-05-14T07:56:39.426Z,14.52
2023-05-14T07:57:39.354Z,14.46
2023-05-14T07:58:39.391Z,14.54
2023-05-14T07:59:39.351Z,14.63
2023-05-14T08:00:39.355Z,14.63
2023-05-14T08:01:39.655Z,14.64
2023-05-14T08:02:39.437Z,14.74
2023-05-14T08:03:39.350Z,14.82
2023-05-14T08:04:39.495Z,14.86
2023-05-14T08:05:39.280Z,14.98
2023-05-14T08:06:39.283Z,15.04
2023-05-14T08:07:39.268Z,15.01
2023-05-14T08:08:39.259Z,15.04
2023-05-14T08:09:39.221Z,15.12
2023-05-14T08:10:39.304Z,15.19
2023-05-14T08:11:39.217Z,15.22
2023-05-14T08:12:39.227Z,15.19
2023-05-14T08:13:39.258Z,15.03
2023-05-14T08:14:39.244Z,14.97
2023-05-14T08:15:39.178Z,15.01
2023-05-14T08:16:39.300Z,15.11
2023-05-14T08:17:39.275Z,15.23
2023-05-14T08:18:39.205Z,15.27
2023-05-14T08:19:39.126Z,15.37
2023-05-14T08:20:39.175Z,15.53
2023-05-14T08:21:39.111Z,15.53
2023-05-14T08:22:39.113Z,15.52
2023-05-14T08:23:39.099Z,15.51
2023-05-14T08:24:39.144Z,15.55
2023-05-14T08:25:39.062Z,15.67
2023-05-14T08:26:39.127Z,15.62
2023-05-14T08:27:39.044Z,15.41
2023-05-14T08:28:39.073Z,15.44
2023-05-14T08:29:39.051Z,15.60
2023-05-14T08:30:39.050Z,15.80
2023-05-14T08:31:39.005Z,15.98
2023-05-14T08:32:39.078Z,16.13
2023-05-14T08:33:38.995Z,16.11
2023-05-14T08:34:39.035Z,16.13
2023-05-14T08:35:38.985Z,16.26
2023-05-14T08:36:38.997Z,16.34
2023-05-14T08:37:38.978Z,16.32
2023-05-14T08:38:38.961Z,16.37
2023-05-14T08:39:38.925Z,16.25
2023-05-14T08:40:38.921Z,16.23
2023-05-14T08:41:38.891Z,16.32
2023-05-14T08:42:38.903Z,16.23
2023-05-14T08:43:38.946Z,16.18
2023-05-14T08:44:38.914Z,16.22
2023-05-14T08:45:38.860Z,16.37
2023-05-14T08:46:38.910Z,16.33
2023-05-14T08:47:38.871Z,16.26
2023-05-14T08:48:38.875Z,16.30
2023-05-14T08:49:38.850Z,16.36
2023-05-14T08:50:38.858Z,16.55
2023-05-14T08:51:38.814Z,16.72
2023-05-14T08:52:38.813Z,16.81
2023-05-14T08:53:38.766Z,16.72
2023-05-14T08:54:38.817Z,16.67
2023-05-14T08:55:38.743Z,16.55
2023-05-14T08:56:38.820Z,16.57
2023-05-14T08:57:38.741Z,16.55
2023-05-14T08:58:38.769Z,16.60
2023-05-14T08:59:38.720Z,16.59
2023-05-14T09:00:38.719Z,16.66
2023-05-14T09:01:38.774Z,16.80
2023-05-14T09:02:38.725Z,16.91
2023-05-14T09:03:38.784Z,17.03
2023-05-14T09:04:38.679Z,17.12
2023-05-14T09:05:38.648Z,17.21
2023-05-14T09:06:38.692Z,16.98
2023-05-14T09:07:38.623Z,16.96
2023-05-14T09:08:38.652Z,16.82
2023-05-14T09:09:38.958Z,16.70
2023-05-14T09:10:38.613Z,16.75
2023-05-14T09:11:38.626Z,16.87
2023-05-14T09:12:38.581Z,16.85
2023-05-14T09:13:38.583Z,16.85
2023-05-14T09:14:38.558Z,16.99
2023-05-14T09:15:38.569Z,17.10
2023-05-14T09:16:38.656Z,17.38
2023-05-14T09:17:38.575Z,17.54
2023-05-14T09:18:38.564Z,17.45
2023-05-14T09:19:38.521Z,17.24
2023-05-14T09:20:38.533Z,17.22
2023-05-14T09:21:38.522Z,17.21
2023-05-14T09:22:41.410Z,17.22
2023-05-14T09:23:45.411Z,17.27
2023-05-14T09:24:38.504Z,17.24
2023-05-14T09:25:38.423Z,17.18
2023-05-14T09:26:38.453Z,17.09
2023-05-14T09:27:38.408Z,17.02
2023-05-14T09:28:38.427Z,17.06
2023-05-14T09:29:38.434Z,16.92
2023-05-14T09:30:38.455Z,16.92
2023-05-14T09:31:38.401Z,17.03
2023-05-14T09:32:38.457Z,17.32
2023-05-14T09:33:38.353Z,17.47
2023-05-14T09:34:38.389Z,17.76
2023-05-14T09:35:38.361Z,17.95
2023-05-14T09:36:38.360Z,17.96
2023-05-14T09:37:38.327Z,18.09
2023-05-14T09:38:38.315Z,18.25
2023-05-14T09:39:38.292Z,18.14
2023-05-14T09:40:38.307Z,17.71
2023-05-14T09:41:38.264Z,17.58
2023-05-14T09:42:38.322Z,17.71
2023-05-14T09:43:38.266Z,17.76
2023-05-14T09:44:38.316Z,17.86
2023-05-14T09:45:38.241Z,18.02
2023-05-14T09:46:38.233Z,18.29
2023-05-14T09:47:38.284Z,18.46
2023-05-14T09:48:52.542Z,18.21
2023-05-14T09:49:38.890Z,18.02
2023-05-14T09:50:38.263Z,18.09
2023-05-14T09:51:38.178Z,17.95
2023-05-14T09:52:38.179Z,18.14
2023-05-14T09:53:38.152Z,18.42
2023-05-14T09:54:38.168Z,18.34
2023-05-14T09:55:38.133Z,18.57
2023-05-14T09:56:38.147Z,18.62
2023-05-14T09:57:38.109Z,18.46
2023-05-14T09:58:38.157Z,18.13
2023-05-14T09:59:38.078Z,18.02
2023-05-14T10:00:38.104Z,17.79
2023-05-14T10:01:38.110Z,17.68
2023-05-14T10:02:38.388Z,17.63
2023-05-14T10:03:38.077Z,17.71
2023-05-14T10:04:38.072Z,17.83
2023-05-14T10:05:38.049Z,17.89
2023-05-14T10:06:44.905Z,17.86
2023-05-14T10:07:38.008Z,17.86
2023-05-14T10:08:38.024Z,17.68
2023-05-14T10:09:37.988Z,17.70
2023-05-14T10:10:38.034Z,17.89
2023-05-14T10:11:37.978Z,17.89
2023-05-14T10:12:37.941Z,17.95
2023-05-14T10:13:37.989Z,18.05
2023-05-14T10:14:37.920Z,18.13
2023-05-14T10:15:37.929Z,18.21
2023-05-14T10:16:37.977Z,18.29
2023-05-14T10:17:37.951Z,18.36
2023-05-14T10:18:37.874Z,18.21
2023-05-14T10:19:37.888Z,18.09
2023-05-14T10:20:37.865Z,18.17
2023-05-14T10:21:37.931Z,18.09
2023-05-14T10:22:37.849Z,17.94
2023-05-14T10:23:37.866Z,17.99
2023-05-14T10:24:37.813Z,18.13
2023-05-14T10:25:37.863Z,18.28
2023-05-14T10:26:37.801Z,18.32
2023-05-14T10:27:37.837Z,18.25
2023-05-14T10:28:37.775Z,18.17
2023-05-14T10:29:37.984Z,18.23
2023-05-14T10:30:37.779Z,18.56
2023-05-14T10:31:37.990Z,18.74
2023-05-14T10:32:37.784Z,18.71
2023-05-14T10:33:37.741Z,18.76
2023-05-14T10:34:37.807Z,18.49
2023-05-14T10:35:37.736Z,18.36
2023-05-14T10:36:37.690Z,18.29
2023-05-14T10:37:37.726Z,18.25
2023-05-14T10:38:37.669Z,18.21
2023-05-14T10:39:37.680Z,18.21
2023-05-14T10:40:37.660Z,18.25
2023-05-14T10:41:37.655Z,18.21
2023-05-14T10:42:37.677Z,18.41
2023-05-14T10:43:37.654Z,18.66
2023-05-14T10:44:37.628Z,18.83
2023-05-14T10:45:37.619Z,18.96
2023-05-14T10:46:37.646Z,19.10
2023-05-14T10:47:37.685Z,19.21
2023-05-14T10:48:37.578Z,19.25
2023-05-14T10:49:43.586Z,19.31
2023-05-14T10:50:37.551Z,19.31
2023-05-14T10:51:37.730Z,19.32
2023-05-14T10:52:37.527Z,19.38
2023-05-14T10:53:37.523Z,19.42
2023-05-14T10:54:37.518Z,19.45
2023-05-14T10:55:37.533Z,19.28
2023-05-14T10:56:37.469Z,19.09
2023-05-14T10:57:37.513Z,18.93
2023-05-14T10:58:37.463Z,18.69
2023-05-14T10:59:37.460Z,18.71
2023-05-14T11:00:37.509Z,18.59
2023-05-14T11:01:37.515Z,18.49
2023-05-14T11:02:37.492Z,18.46
2023-05-14T11:03:37.470Z,18.35
2023-05-14T11:04:37.414Z,18.31
2023-05-14T11:05:37.417Z,18.35
2023-05-14T11:06:37.406Z,18.49
2023-05-14T11:07:37.422Z,18.54
2023-05-14T11:08:37.391Z,18.56
2023-05-14T11:09:37.420Z,18.59
2023-05-14T11:10:37.368Z,18.74
2023-05-14T11:11:37.339Z,19.10
2023-05-14T11:12:37.314Z,19.30
2023-05-14T11:13:37.314Z,19.52
2023-05-14T11:14:37.323Z,19.64
2023-05-14T11:15:37.323Z,19.58
2023-05-14T11:16:37.289Z,19.38
2023-05-14T11:17:37.626Z,19.24
2023-05-14T11:18:37.285Z,19.15
2023-05-14T11:19:37.259Z,19.23
2023-05-14T11:20:37.254Z,19.53
2023-05-14T11:21:37.273Z,19.57
2023-05-14T11:22:37.235Z,19.53
2023-05-14T11:23:37.209Z,19.71
2023-05-14T11:24:37.183Z,19.90
2023-05-14T11:25:37.228Z,19.82
2023-05-14T11:26:37.263Z,19.68
2023-05-14T11:27:37.174Z,19.71
2023-05-14T11:28:37.218Z,19.79
2023-05-14T11:29:37.184Z,19.83
2023-05-14T11:30:37.112Z,19.65
2023-05-14T11:31:37.150Z,19.43
2023-05-14T11:32:37.115Z,19.47
2023-05-14T11:33:37.138Z,19.61
2023-05-14T11:34:37.079Z,19.78
2023-05-14T11:35:37.124Z,20.04
2023-05-14T11:36:37.113Z,20.07
2023-05-14T11:37:37.095Z,20.22
2023-05-14T11:38:37.100Z,19.97
2023-05-14T11:39:37.100Z,19.75
2023-05-14T11:40:37.041Z,19.79
2023-05-14T11:41:37.046Z,19.82
2023-05-14T11:42:37.046Z,19.87
2023-05-14T11:43:37.010Z,19.70
2023-05-14T11:44:36.975Z,19.83
2023-05-14T11:45:36.994Z,19.98
2023-05-14T11:46:37.010Z,20.19
2023-05-14T11:47:37.071Z,20.25
2023-05-14T11:48:36.944Z,20.38
2023-05-14T11:49:36.952Z,20.41
2023-05-14T11:50:37.008Z,20.41
2023-05-14T11:51:36.975Z,20.26
2023-05-14T11:52:36.901Z,20.27
2023-05-14T11:53:36.908Z,20.25
2023-05-14T11:54:42.578Z,20.40
2023-05-14T11:55:36.883Z,20.56
2023-05-14T11:56:36.890Z,20.56
2023-05-14T11:57:36.883Z,20.31
2023-05-14T11:58:36.833Z,20.25
2023-05-14T11:59:36.848Z,20.30
2023-05-14T12:00:36.848Z,20.30
2023-05-14T12:01:36.825Z,20.44
2023-05-14T12:02:36.917Z,20.68
2023-05-14T12:03:37.016Z,20.83
2023-05-14T12:04:36.777Z,20.78
2023-05-14T12:05:36.793Z,20.98
2023-05-14T12:06:36.746Z,21.05
2023-05-14T12:07:36.760Z,21.12
2023-05-14T12:08:36.804Z,21.21
2023-05-14T12:09:36.744Z,20.97
2023-05-14T12:10:36.749Z,20.94
2023-05-14T12:11:36.714Z,20.53
2023-05-14T12:12:36.700Z,20.23
2023-05-14T12:13:36.738Z,19.95
2023-05-14T12:14:36.671Z,20.01
2023-05-14T12:15:36.723Z,20.15
2023-05-14T12:16:38.340Z,20.16
2023-05-14T12:17:36.689Z,20.25
2023-05-14T12:18:36.694Z,20.23
2023-05-14T12:19:36.644Z,20.13
2023-05-14T12:20:36.597Z,19.90
2023-05-14T12:21:36.662Z,19.95
2023-05-14T12:22:37.201Z,20.02
2023-05-14T12:23:36.615Z,20.08
2023-05-14T12:24:36.562Z,20.12
2023-05-14T12:25:36.601Z,20.22
2023-05-14T12:26:36.544Z,20.31
2023-05-14T12:27:36.556Z,20.00
2023-05-14T12:28:38.498Z,19.64
2023-05-14T12:29:36.548Z,19.61
2023-05-14T12:30:36.643Z,19.39
2023-05-14T12:31:36.617Z,19.30
2023-05-14T12:32:36.524Z,19.30
2023-05-14T12:33:36.496Z,19.13
2023-05-14T12:34:37.478Z,18.94
2023-05-14T12:35:36.517Z,18.71
2023-05-14T12:36:36.447Z,18.56
2023-05-14T12:37:36.521Z,18.44
2023-05-14T12:38:36.437Z,18.44
2023-05-14T12:39:36.439Z,18.42
2023-05-14T12:40:36.407Z,18.56
2023-05-14T12:41:36.417Z,18.65
2023-05-14T12:42:36.446Z,18.71
2023-05-14T12:43:36.407Z,18.64
2023-05-14T12:44:36.366Z,18.62
2023-05-14T12:45:36.403Z,18.59
2023-05-14T12:46:36.381Z,18.71
2023-05-14T12:47:36.628Z,18.83
2023-05-14T12:48:36.372Z,18.90
2023-05-14T12:49:36.341Z,18.86
2023-05-14T12:50:36.326Z,18.97
2023-05-14T12:51:36.324Z,19.01
2023-05-14T12:52:39.381Z,19.10